createdAt,value
2018-06-17T00:03:17.744Z,9.67
2018-06-17T00:08:12.249Z,8.50
2018-06-17T00:13:06.792Z,9.23
2018-06-17T00:18:01.213Z,8.60
2018-06-17T00:22:55.667Z,8.03
2018-06-17T00:27:50.102Z,8.57
2018-06-17T00:32:44.509Z,7.80
2018-06-17T00:37:38.973Z,9.67
2018-06-17T00:42:33.402Z,9.73
2018-06-17T00:47:27.845Z,12.67
2018-06-17T00:52:22.283Z,8.77
2018-06-17T00:57:33.622Z,9.63
2018-06-17T01:02:28.140Z,10.10
2018-06-17T01:07:22.657Z,9.97
2018-06-17T01:12:17.160Z,8.70
2018-06-17T01:17:11.577Z,8.13
2018-06-17T01:22:06.137Z,7.93
2018-06-17T01:27:00.564Z,8.73
2018-06-17T01:31:54.991Z,7.93
2018-06-17T01:36:49.428Z,9.40
2018-06-17T01:41:43.839Z,9.30
2018-06-17T01:46:38.296Z,11.90
2018-06-17T01:51:32.749Z,10.03
2018-06-17T01:56:27.220Z,10.17
2018-06-17T02:01:21.678Z,10.33
2018-06-17T02:06:21.223Z,11.53
2018-06-17T02:11:20.873Z,10.63
2018-06-17T02:16:15.340Z,11.67
2018-06-17T02:21:09.819Z,11.00
2018-06-17T02:26:04.249Z,10.30
2018-06-17T02:30:58.788Z,12.73
2018-06-17T02:35:53.240Z,10.00
2018-06-17T02:40:47.682Z,9.17
2018-06-17T02:45:47.206Z,9.13
2018-06-17T02:50:46.817Z,10.60
2018-06-17T02:55:41.336Z,9.13
2018-06-17T03:00:35.790Z,8.27
2018-06-17T03:05:30.225Z,8.13
2018-06-17T03:10:24.700Z,7.43
2018-06-17T03:15:19.123Z,8.40
2018-06-17T03:20:13.536Z,7.80
2018-06-17T03:25:13.510Z,8.40
2018-06-17T03:30:13.082Z,8.87
2018-06-17T03:35:13.321Z,7.73
2018-06-17T03:40:07.765Z,8.57
2018-06-17T03:45:02.210Z,8.17
2018-06-17T03:49:56.618Z,9.83
2018-06-17T03:54:51.174Z,7.70
2018-06-17T03:59:45.613Z,6.90
2018-06-17T04:04:45.340Z,7.90
2018-06-17T04:09:39.728Z,6.47
2018-06-17T04:14:34.156Z,6.80
2018-06-17T04:19:28.285Z,8.47
2018-06-17T04:24:22.695Z,6.17
2018-06-17T04:29:17.091Z,8.43
2018-06-17T04:34:11.566Z,5.60
2018-06-17T04:39:08.404Z,5.30
2018-06-17T04:44:02.847Z,5.60
2018-06-17T04:48:57.246Z,7.23
2018-06-17T04:53:51.656Z,5.20
2018-06-17T04:58:46.060Z,6.47
2018-06-17T05:03:40.473Z,4.60
2018-06-17T05:08:34.953Z,7.47
2018-06-17T05:13:29.368Z,5.42
2018-06-17T05:18:23.784Z,5.45
2018-06-17T05:23:18.211Z,4.58
2018-06-17T05:28:12.705Z,5.83
2018-06-17T05:33:07.110Z,5.25
2018-06-17T05:38:01.621Z,3.90
2018-06-17T05:42:56.033Z,3.83
2018-06-17T05:47:50.432Z,6.45
2018-06-17T05:52:44.831Z,3.70
2018-06-17T05:57:39.406Z,3.90
2018-06-17T06:02:33.526Z,3.80
2018-06-17T06:07:28.017Z,5.17
2018-06-17T06:12:22.461Z,5.33
2018-06-17T06:17:16.899Z,7.35
2018-06-17T06:22:11.059Z,5.42
2018-06-17T06:27:05.621Z,7.37
2018-06-17T06:32:00.025Z,5.87
2018-06-17T06:36:54.476Z,4.92
2018-06-17T06:41:48.912Z,5.62
2018-06-17T06:46:43.448Z,5.90
2018-06-17T06:51:37.855Z,6.17
2018-06-17T06:56:32.281Z,3.50
2018-06-17T07:01:43.510Z,4.87
2018-06-17T07:06:54.960Z,6.90
2018-06-17T07:11:49.360Z,4.15
2018-06-17T07:17:00.514Z,4.50
2018-06-17T07:23:24.356Z,7.00
2018-06-17T07:30:27.419Z,4.25
2018-06-17T07:35:21.912Z,3.98
2018-06-17T07:40:54.981Z,4.37
2018-06-17T07:45:49.427Z,5.28
2018-06-17T07:51:00.581Z,5.45
2018-06-17T07:55:54.989Z,3.37
2018-06-17T08:00:49.422Z,5.47
2018-06-17T08:05:43.857Z,4.17
2018-06-17T08:10:38.257Z,6.28
2018-06-17T08:15:32.654Z,4.92
2018-06-17T08:20:27.065Z,4.85
2018-06-17T08:25:21.539Z,3.67
2018-06-17T08:30:16.196Z,4.58
2018-06-17T08:35:10.619Z,5.33
2018-06-17T08:40:05.049Z,7.35
2018-06-17T08:44:59.457Z,3.90
2018-06-17T08:49:53.857Z,5.97
2018-06-17T08:54:48.280Z,3.65
2018-06-17T08:59:42.827Z,3.92
2018-06-17T09:04:37.278Z,7.58
2018-06-17T09:09:31.707Z,4.08
2018-06-17T09:14:26.171Z,4.10
2018-06-17T09:19:20.624Z,6.75
2018-06-17T09:24:15.075Z,4.42
2018-06-17T09:29:09.511Z,5.22
2018-06-17T09:34:03.928Z,3.85
2018-06-17T09:38:58.730Z,4.47
2018-06-17T09:43:53.191Z,4.42
2018-06-17T09:48:47.330Z,3.75
2018-06-17T09:53:41.764Z,5.45
2018-06-17T09:58:36.413Z,6.03
2018-06-17T10:03:30.853Z,3.58
2018-06-17T10:08:25.279Z,5.10
2018-06-17T10:13:20.300Z,5.65
2018-06-17T10:18:15.825Z,3.83
2018-06-17T10:23:10.736Z,5.67
2018-06-17T10:28:05.884Z,4.70
2018-06-17T10:33:00.309Z,3.02
2018-06-17T10:37:54.727Z,6.60
2018-06-17T10:42:49.559Z,4.95
2018-06-17T10:47:44.794Z,5.28
2018-06-17T10:52:40.456Z,5.67
2018-06-17T10:57:34.988Z,4.78
2018-06-17T11:02:29.594Z,4.10
2018-06-17T11:07:24.092Z,4.03
2018-06-17T11:12:18.527Z,5.50
2018-06-17T11:17:13.043Z,3.80
2018-06-17T11:22:07.553Z,3.35
2018-06-17T11:27:01.973Z,6.75
2018-06-17T11:31:56.393Z,5.05
2018-06-17T11:36:50.845Z,4.75
2018-06-17T11:41:45.296Z,3.80
2018-06-17T11:46:39.808Z,4.80
2018-06-17T11:51:34.249Z,3.60
2018-06-17T11:56:28.674Z,3.90
2018-06-17T12:01:23.093Z,2.83
2018-06-17T12:06:17.531Z,4.45
2018-06-17T12:11:11.953Z,3.08
2018-06-17T12:16:06.397Z,4.25
2018-06-17T12:21:00.864Z,4.83
2018-06-17T12:25:55.301Z,6.37
2018-06-17T12:30:49.704Z,6.28
2018-06-17T12:35:44.160Z,7.25
2018-06-17T12:40:38.755Z,7.80
2018-06-17T12:45:33.142Z,6.05
2018-06-17T12:50:27.680Z,5.73
2018-06-17T12:55:22.096Z,5.50
2018-06-17T13:00:16.576Z,4.93
2018-06-17T13:05:11.056Z,5.50
2018-06-17T13:10:05.692Z,4.73
2018-06-17T13:15:00.177Z,5.33
2018-06-17T13:19:54.595Z,5.07
2018-06-17T13:24:49.040Z,6.80
2018-06-17T13:29:43.572Z,7.70
2018-06-17T13:34:37.987Z,3.95
2018-06-17T13:39:32.456Z,5.67
2018-06-17T13:44:26.973Z,5.10
2018-06-17T13:49:21.482Z,4.35
2018-06-17T13:54:15.901Z,5.55
2018-06-17T13:59:10.337Z,5.03
2018-06-17T14:04:04.818Z,6.10
2018-06-17T14:08:59.285Z,4.10
2018-06-17T14:13:53.708Z,6.47
2018-06-17T14:18:48.164Z,4.62
2018-06-17T14:23:42.760Z,4.17
2018-06-17T14:28:37.251Z,4.25
2018-06-17T14:33:31.639Z,4.12
2018-06-17T14:38:26.041Z,5.33
2018-06-17T14:43:25.431Z,5.55
2018-06-17T14:48:25.038Z,6.28
2018-06-17T14:53:19.611Z,3.83
2018-06-17T14:58:15.179Z,4.37
2018-06-17T15:03:09.714Z,5.10
2018-06-17T15:08:04.247Z,2.90
2018-06-17T15:12:58.859Z,4.90
2018-06-17T15:17:53.261Z,3.62
2018-06-17T15:22:47.780Z,3.87
2018-06-17T15:27:42.220Z,4.00
2018-06-17T15:32:41.434Z,4.45
2018-06-17T15:37:40.900Z,7.37
2018-06-17T15:42:35.378Z,4.35
2018-06-17T15:47:29.816Z,3.62
2018-06-17T15:52:24.246Z,4.10
2018-06-17T15:57:18.720Z,4.12
2018-06-17T16:02:13.251Z,3.50
2018-06-17T16:07:07.697Z,3.70
2018-06-17T16:12:06.393Z,5.70
2018-06-17T16:17:05.929Z,2.62
2018-06-17T16:22:00.384Z,3.30
2018-06-17T16:26:54.848Z,2.80
2018-06-17T16:31:49.373Z,4.50
2018-06-17T16:36:43.816Z,4.70
2018-06-17T16:41:38.258Z,3.83
2018-06-17T16:46:32.778Z,3.87
2018-06-17T16:51:32.301Z,3.67
2018-06-17T16:56:31.869Z,3.40
2018-06-17T17:01:26.362Z,5.97
2018-06-17T17:06:20.787Z,5.37
2018-06-17T17:11:15.221Z,6.53
2018-06-17T17:16:10.037Z,4.63
2018-06-17T17:21:04.589Z,7.73
2018-06-17T17:25:59.520Z,4.80
2018-06-17T17:30:53.979Z,6.50
2018-06-17T17:35:53.595Z,7.40
2018-06-17T17:40:51.793Z,5.87
2018-06-17T17:45:51.257Z,6.90
2018-06-17T17:50:45.669Z,5.87
2018-06-17T17:55:40.085Z,8.93
2018-06-17T18:00:34.570Z,5.17
2018-06-17T18:05:29.001Z,7.67
2018-06-17T18:10:23.118Z,7.97
2018-06-17T18:15:17.549Z,5.17
2018-06-17T18:20:12.047Z,7.43
2018-06-17T18:25:12.400Z,6.30
2018-06-17T18:30:12.135Z,7.03
2018-06-17T18:35:11.873Z,7.03
2018-06-17T18:40:06.365Z,5.20
2018-06-17T18:45:00.830Z,6.03
2018-06-17T18:49:55.298Z,6.70
2018-06-17T18:54:49.762Z,5.67
2018-06-17T18:59:44.213Z,6.77
2018-06-17T19:04:39.167Z,8.43
2018-06-17T19:09:38.931Z,8.07
2018-06-17T19:14:38.457Z,5.73
2018-06-17T19:19:32.876Z,6.03
2018-06-17T19:24:27.280Z,7.43
2018-06-17T19:29:21.745Z,7.93
2018-06-17T19:34:16.178Z,6.10
2018-06-17T19:39:11.834Z,8.90
2018-06-17T19:44:06.432Z,5.33
2018-06-17T19:49:00.876Z,9.57
2018-06-17T19:54:00.521Z,9.13
2018-06-17T19:59:00.154Z,8.10
2018-06-17T20:03:54.562Z,10.30
2018-06-17T20:08:48.983Z,7.80
2018-06-17T20:13:43.447Z,10.37
2018-06-17T20:18:37.945Z,6.07
2018-06-17T20:23:32.361Z,7.87
2018-06-17T20:28:26.807Z,6.83
2018-06-17T20:33:26.391Z,6.80
2018-06-17T20:38:25.900Z,5.20
2018-06-17T20:43:25.395Z,5.43
2018-06-17T20:48:19.836Z,6.27
2018-06-17T20:53:14.236Z,8.87
2018-06-17T20:58:08.375Z,10.00
2018-06-17T21:03:02.781Z,7.03
2018-06-17T21:07:57.240Z,9.83
2018-06-17T21:12:51.698Z,7.23
2018-06-17T21:17:48.838Z,6.00
2018-06-17T21:22:48.322Z,6.73
2018-06-17T21:27:42.792Z,8.53
2018-06-17T21:32:37.837Z,6.97
2018-06-17T21:37:32.333Z,8.30
2018-06-17T21:42:26.773Z,6.73
2018-06-17T21:47:21.211Z,7.17
2018-06-17T21:52:15.628Z,9.40
2018-06-17T21:57:10.086Z,6.30
2018-06-17T22:02:04.588Z,6.27
2018-06-17T22:06:58.723Z,7.60
2018-06-17T22:11:58.140Z,7.50
2018-06-17T22:16:57.786Z,6.13
2018-06-17T22:21:52.272Z,6.20
2018-06-17T22:26:46.663Z,6.63
2018-06-17T22:31:41.151Z,7.93
2018-06-17T22:36:35.572Z,6.37
2018-06-17T22:41:29.988Z,6.17
2018-06-17T22:46:24.400Z,7.30
2018-06-17T22:51:18.855Z,7.43
2018-06-17T22:56:18.532Z,7.77
2018-06-17T23:01:18.136Z,6.07
2018-06-17T23:06:17.749Z,8.03
2018-06-17T23:11:12.180Z,5.93
2018-06-17T23:16:06.654Z,7.70
2018-06-17T23:21:01.058Z,6.37
2018-06-17T23:25:55.467Z,8.07
2018-06-17T23:30:49.897Z,5.03
2018-06-17T23:35:44.302Z,8.80
2018-06-17T23:40:38.728Z,8.00
2018-06-17T23:45:33.113Z,8.47
2018-06-17T23:50:32.749Z,5.80
2018-06-17T23:55:32.396Z,8.23
